sensor_id;sensor_type;location;lat;lon;timestamp;pressure;altitude;pressure_sealevel;temperature;humidity
22572;BME280;11452;53.368;14.658;2023-02-22T00:00:52;101110.25;;;5.66;79.94
22572;BME280;11452;53.368;14.658;2023-02-22T00:05:59;101111.78;;;5.74;80.04
22572;BME280;11452;53.368;14.658;2023-02-22T00:11:08;101109.33;;;5.81;80.32
22572;BME280;11452;53.368;14.658;2023-02-22T00:16:16;101116.75;;;6.00;80.54
22572;BME280;11452;53.368;14.658;2023-02-22T00:21:22;101121.46;;;6.05;80.18
22572;BME280;11452;53.368;14.658;2023-02-22T00:26:28;101128.33;;;6.12;80.56
22572;BME280;11452;53.368;14.658;2023-02-22T00:31:36;101123.84;;;6.27;80.47
22572;BME280;11452;53.368;14.658;2023-02-22T00:36:47;101128.65;;;6.42;80.25
22572;BME280;11452;53.368;14.658;2023-02-22T00:41:53;101124.61;;;6.57;80.15
22572;BME280;11452;53.368;14.658;2023-02-22T00:46:59;101125.44;;;6.59;79.88
22572;BME280;11452;53.368;14.658;2023-02-22T00:52:05;101132.43;;;6.62;79.74
22572;BME280;11452;53.368;14.658;2023-02-22T00:57:12;101126.76;;;6.59;79.26
22572;BME280;11452;53.368;14.658;2023-02-22T01:02:20;101128.45;;;6.62;79.35
22572;BME280;11452;53.368;14.658;2023-02-22T01:07:25;101125.23;;;6.65;79.20
22572;BME280;11452;53.368;14.658;2023-02-22T01:12:31;101127.20;;;6.72;78.98
22572;BME280;11452;53.368;14.658;2023-02-22T01:17:38;101109.99;;;6.83;79.49
22572;BME280;11452;53.368;14.658;2023-02-22T01:22:46;101110.37;;;6.98;78.97
22572;BME280;11452;53.368;14.658;2023-02-22T01:27:54;101116.33;;;6.79;78.56
22572;BME280;11452;53.368;14.658;2023-02-22T01:33:01;101121.28;;;6.77;78.85
22572;BME280;11452;53.368;14.658;2023-02-22T01:38:09;101119.75;;;6.83;79.09
22572;BME280;11452;53.368;14.658;2023-02-22T01:43:32;101125.64;;;6.91;78.77
22572;BME280;11452;53.368;14.658;2023-02-22T01:48:42;101114.28;;;6.74;78.10
22572;BME280;11452;53.368;14.658;2023-02-22T01:54:00;101124.66;;;6.82;79.30
22572;BME280;11452;53.368;14.658;2023-02-22T01:59:07;101116.70;;;6.93;78.95
22572;BME280;11452;53.368;14.658;2023-02-22T02:04:18;101117.20;;;6.80;78.32
22572;BME280;11452;53.368;14.658;2023-02-22T02:09:39;101114.13;;;6.79;78.72
22572;BME280;11452;53.368;14.658;2023-02-22T02:14:44;101111.80;;;6.56;78.38
22572;BME280;11452;53.368;14.658;2023-02-22T02:20:02;101104.48;;;6.50;78.55
22572;BME280;11452;53.368;14.658;2023-02-22T02:36:25;101116.58;;;6.19;78.65
22572;BME280;11452;53.368;14.658;2023-02-22T02:41:49;101116.30;;;6.28;79.12
22572;BME280;11452;53.368;14.658;2023-02-22T02:46:39;101111.17;;;6.22;78.86
22572;BME280;11452;53.368;14.658;2023-02-22T02:51:48;101118.63;;;6.11;78.25
22572;BME280;11452;53.368;14.658;2023-02-22T02:56:56;101114.50;;;5.86;78.74
22572;BME280;11452;53.368;14.658;2023-02-22T03:07:39;101121.45;;;5.61;78.03
22572;BME280;11452;53.368;14.658;2023-02-22T03:12:54;101117.84;;;5.63;79.27
22572;BME280;11452;53.368;14.658;2023-02-22T03:18:05;101119.00;;;5.54;78.94
22572;BME280;11452;53.368;14.658;2023-02-22T03:23:23;101118.30;;;5.48;78.95
22572;BME280;11452;53.368;14.658;2023-02-22T03:28:29;101121.50;;;5.13;78.72
22572;BME280;11452;53.368;14.658;2023-02-22T03:33:51;101130.44;;;5.09;79.10
22572;BME280;11452;53.368;14.658;2023-02-22T03:39:00;101186.03;;;5.11;79.01
22572;BME280;11452;53.368;14.658;2023-02-22T03:44:11;101134.63;;;4.68;79.67
22572;BME280;11452;53.368;14.658;2023-02-22T03:49:34;101134.63;;;4.68;79.67
22572;BME280;11452;53.368;14.658;2023-02-22T03:54:41;101130.16;;;4.70;80.39
22572;BME280;11452;53.368;14.658;2023-02-22T03:59:47;101133.72;;;4.69;80.06
22572;BME280;11452;53.368;14.658;2023-02-22T04:04:53;101137.78;;;4.48;80.30
22572;BME280;11452;53.368;14.658;2023-02-22T04:09:59;101138.50;;;4.55;81.02
22572;BME280;11452;53.368;14.658;2023-02-22T04:15:10;101140.24;;;4.56;80.71
22572;BME280;11452;53.368;14.658;2023-02-22T04:20:16;101150.58;;;4.29;80.48
22572;BME280;11452;53.368;14.658;2023-02-22T04:25:25;101146.58;;;4.31;80.99
22572;BME280;11452;53.368;14.658;2023-02-22T04:30:32;101152.75;;;4.12;80.93
22572;BME280;11452;53.368;14.658;2023-02-22T04:35:39;101152.52;;;4.23;81.72
22572;BME280;11452;53.368;14.658;2023-02-22T04:40:45;101150.05;;;4.15;80.99
22572;BME280;11452;53.368;14.658;2023-02-22T04:45:50;101148.66;;;4.18;81.54
22572;BME280;11452;53.368;14.658;2023-02-22T04:50:56;101144.50;;;4.08;81.30
22572;BME280;11452;53.368;14.658;2023-02-22T04:56:04;101145.69;;;4.12;81.53
22572;BME280;11452;53.368;14.658;2023-02-22T05:01:11;101143.23;;;3.86;81.03
22572;BME280;11452;53.368;14.658;2023-02-22T05:06:17;101146.38;;;3.63;81.18
22572;BME280;11452;53.368;14.658;2023-02-22T05:11:23;101143.06;;;3.72;82.33
22572;BME280;11452;53.368;14.658;2023-02-22T05:16:29;101144.48;;;3.69;81.87
22572;BME280;11452;53.368;14.658;2023-02-22T05:21:34;101149.41;;;3.65;82.32
22572;BME280;11452;53.368;14.658;2023-02-22T05:26:41;101144.33;;;3.75;82.30
22572;BME280;11452;53.368;14.658;2023-02-22T05:31:48;101144.75;;;3.76;82.17
22572;BME280;11452;53.368;14.658;2023-02-22T05:36:54;101155.02;;;3.71;81.83
22572;BME280;11452;53.368;14.658;2023-02-22T05:41:59;101157.30;;;3.67;81.79
22572;BME280;11452;53.368;14.658;2023-02-22T05:47:05;101158.66;;;3.65;81.76
22572;BME280;11452;53.368;14.658;2023-02-22T05:52:10;101161.42;;;3.59;81.35
22572;BME280;11452;53.368;14.658;2023-02-22T05:57:16;101164.54;;;3.57;81.80
22572;BME280;11452;53.368;14.658;2023-02-22T06:02:22;101177.03;;;3.51;81.67
22572;BME280;11452;53.368;14.658;2023-02-22T06:07:27;101176.80;;;3.39;81.21
22572;BME280;11452;53.368;14.658;2023-02-22T06:12:33;101180.84;;;3.34;81.50
22572;BME280;11452;53.368;14.658;2023-02-22T06:17:39;101180.84;;;3.34;81.45
22572;BME280;11452;53.368;14.658;2023-02-22T06:22:52;101188.58;;;3.45;81.89
22572;BME280;11452;53.368;14.658;2023-02-22T06:27:59;101192.59;;;3.42;81.43
22572;BME280;11452;53.368;14.658;2023-02-22T06:33:05;101201.19;;;3.31;81.38
22572;BME280;11452;53.368;14.658;2023-02-22T06:38:11;101197.43;;;3.42;82.00
22572;BME280;11452;53.368;14.658;2023-02-22T06:43:17;101207.55;;;3.65;82.68
22572;BME280;11452;53.368;14.658;2023-02-22T06:48:22;101214.62;;;3.86;83.08
22572;BME280;11452;53.368;14.658;2023-02-22T06:53:28;101221.59;;;3.90;83.05
22572;BME280;11452;53.368;14.658;2023-02-22T06:58:33;101220.05;;;3.78;83.01
22572;BME280;11452;53.368;14.658;2023-02-22T07:03:40;101222.82;;;3.93;83.71
22572;BME280;11452;53.368;14.658;2023-02-22T07:08:46;101224.41;;;4.01;83.85
22572;BME280;11452;53.368;14.658;2023-02-22T07:13:53;101223.98;;;4.21;84.46
22572;BME280;11452;53.368;14.658;2023-02-22T07:19:00;101227.05;;;4.22;84.26
22572;BME280;11452;53.368;14.658;2023-02-22T07:24:06;101228.53;;;4.34;84.60
22572;BME280;11452;53.368;14.658;2023-02-22T07:29:11;101236.80;;;4.76;84.55
22572;BME280;11452;53.368;14.658;2023-02-22T07:34:17;101236.80;;;4.76;84.55
22572;BME280;11452;53.368;14.658;2023-02-22T07:39:24;101248.70;;;4.94;84.52
22572;BME280;11452;53.368;14.658;2023-02-22T07:44:30;101255.13;;;5.02;84.80
22572;BME280;11452;53.368;14.658;2023-02-22T07:49:37;101254.30;;;5.17;84.62
22572;BME280;11452;53.368;14.658;2023-02-22T07:54:44;101251.02;;;5.24;84.35
22572;BME280;11452;53.368;14.658;2023-02-22T07:59:53;101254.59;;;5.39;84.71
22572;BME280;11452;53.368;14.658;2023-02-22T08:04:58;101251.94;;;5.39;84.05
22572;BME280;11452;53.368;14.658;2023-02-22T08:10:06;101253.45;;;5.49;84.38
22572;BME280;11452;53.368;14.658;2023-02-22T08:15:26;101256.95;;;5.66;84.01
22572;BME280;11452;53.368;14.658;2023-02-22T08:20:32;101254.83;;;5.79;83.79
22572;BME280;11452;53.368;14.658;2023-02-22T08:25:40;101256.81;;;5.88;84.01
22572;BME280;11452;53.368;14.658;2023-02-22T08:30:45;101255.41;;;6.21;84.38
22572;BME280;11452;53.368;14.658;2023-02-22T08:35:51;101255.27;;;6.25;83.28
22572;BME280;11452;53.368;14.658;2023-02-22T08:40:57;101254.66;;;6.45;83.65
22572;BME280;11452;53.368;14.658;2023-02-22T08:46:03;101256.79;;;6.62;83.16
22572;BME280;11452;53.368;14.658;2023-02-22T08:51:09;101263.39;;;6.90;83.23
22572;BME280;11452;53.368;14.658;2023-02-22T08:56:15;101256.80;;;6.88;81.86
22572;BME280;11452;53.368;14.658;2023-02-22T09:01:22;101264.31;;;6.76;81.24
22572;BME280;11452;53.368;14.658;2023-02-22T09:06:31;101265.72;;;7.01;81.95
22572;BME280;11452;53.368;14.658;2023-02-22T09:11:37;101264.13;;;6.95;80.63
22572;BME280;11452;53.368;14.658;2023-02-22T09:16:43;101273.59;;;7.04;80.63
22572;BME280;11452;53.368;14.658;2023-02-22T09:21:53;101274.29;;;7.09;80.06
22572;BME280;11452;53.368;14.658;2023-02-22T09:26:59;101275.02;;;7.14;79.81
22572;BME280;11452;53.368;14.658;2023-02-22T09:32:06;101268.08;;;7.48;79.90
22572;BME280;11452;53.368;14.658;2023-02-22T09:37:13;101265.57;;;7.56;78.83
22572;BME280;11452;53.368;14.658;2023-02-22T09:42:27;101262.62;;;7.64;78.13
22572;BME280;11452;53.368;14.658;2023-02-22T09:47:49;101263.74;;;7.70;77.71
22572;BME280;11452;53.368;14.658;2023-02-22T09:53:07;101271.52;;;7.76;77.44
22572;BME280;11452;53.368;14.658;2023-02-22T10:03:54;101268.18;;;7.94;77.23
22572;BME280;11452;53.368;14.658;2023-02-22T10:09:00;101263.71;;;8.18;75.96
22572;BME280;11452;53.368;14.658;2023-02-22T10:25:17;101267.18;;;8.33;75.36
22572;BME280;11452;53.368;14.658;2023-02-22T10:30:41;101268.31;;;8.38;74.17
22572;BME280;11452;53.368;14.658;2023-02-22T10:35:41;101268.20;;;8.53;75.54
22572;BME280;11452;53.368;14.658;2023-02-22T10:46:19;101267.95;;;9.02;73.22
22572;BME280;11452;53.368;14.658;2023-02-22T10:51:25;101268.30;;;9.05;73.42
22572;BME280;11452;53.368;14.658;2023-02-22T10:56:31;101253.79;;;9.22;72.50
22572;BME280;11452;53.368;14.658;2023-02-22T11:01:38;101250.91;;;9.17;71.94
22572;BME280;11452;53.368;14.658;2023-02-22T11:07:17;101248.47;;;8.90;71.20
22572;BME280;11452;53.368;14.658;2023-02-22T11:12:10;101248.30;;;9.05;72.25
22572;BME280;11452;53.368;14.658;2023-02-22T11:17:20;101246.09;;;9.05;71.18
22572;BME280;11452;53.368;14.658;2023-02-22T11:22:36;101247.09;;;9.12;71.38
22572;BME280;11452;53.368;14.658;2023-02-22T11:32:53;101239.11;;;9.32;71.11
22572;BME280;11452;53.368;14.658;2023-02-22T11:37:53;101235.98;;;9.33;70.47
22572;BME280;11452;53.368;14.658;2023-02-22T11:43:16;101236.78;;;9.35;69.83
22572;BME280;11452;53.368;14.658;2023-02-22T11:48:22;101231.19;;;9.41;70.52
22572;BME280;11452;53.368;14.658;2023-02-22T11:53:51;101223.17;;;9.51;69.83
22572;BME280;11452;53.368;14.658;2023-02-22T11:59:08;101221.36;;;9.72;70.44
22572;BME280;11452;53.368;14.658;2023-02-22T12:15:15;101207.27;;;9.79;68.38
22572;BME280;11452;53.368;14.658;2023-02-22T12:20:27;101206.43;;;9.97;69.12
22572;BME280;11452;53.368;14.658;2023-02-22T12:25:36;101205.52;;;10.06;68.11
22572;BME280;11452;53.368;14.658;2023-02-22T12:30:45;101203.30;;;9.87;67.38
22572;BME280;11452;53.368;14.658;2023-02-22T12:35:53;101196.16;;;9.88;67.95
22572;BME280;11452;53.368;14.658;2023-02-22T12:46:43;101196.70;;;10.04;67.32
22572;BME280;11452;53.368;14.658;2023-02-22T12:52:11;101187.88;;;10.13;67.27
22572;BME280;11452;53.368;14.658;2023-02-22T12:57:38;101180.36;;;10.02;66.24
22572;BME280;11452;53.368;14.658;2023-02-22T13:03:02;101179.23;;;10.26;67.24
22572;BME280;11452;53.368;14.658;2023-02-22T13:08:20;101180.90;;;10.29;66.35
22572;BME280;11452;53.368;14.658;2023-02-22T13:29:23;101171.72;;;10.16;65.64
22572;BME280;11452;53.368;14.658;2023-02-22T13:40:11;101168.23;;;10.24;65.04
22572;BME280;11452;53.368;14.658;2023-02-22T13:56:00;101175.67;;;10.07;65.03
22572;BME280;11452;53.368;14.658;2023-02-22T14:01:05;101180.59;;;9.97;64.80
22572;BME280;11452;53.368;14.658;2023-02-22T14:06:35;101180.86;;;10.01;65.01
22572;BME280;11452;53.368;14.658;2023-02-22T14:11:41;101182.53;;;9.94;64.54
22572;BME280;11452;53.368;14.658;2023-02-22T14:22:31;101179.55;;;10.10;64.33
22572;BME280;11452;53.368;14.658;2023-02-22T14:27:40;101173.27;;;9.92;64.30
22572;BME280;11452;53.368;14.658;2023-02-22T14:32:46;101170.04;;;9.76;64.24
22572;BME280;11452;53.368;14.658;2023-02-22T14:37:54;101171.38;;;9.76;64.48
22572;BME280;11452;53.368;14.658;2023-02-22T14:43:17;101169.97;;;9.77;64.88
22572;BME280;11452;53.368;14.658;2023-02-22T14:48:38;101175.24;;;9.68;64.52
22572;BME280;11452;53.368;14.658;2023-02-22T14:53:58;101168.47;;;9.51;64.66
22572;BME280;11452;53.368;14.658;2023-02-22T15:04:26;101158.52;;;9.26;65.05
22572;BME280;11452;53.368;14.658;2023-02-22T15:09:32;101160.84;;;9.23;65.08
22572;BME280;11452;53.368;14.658;2023-02-22T15:14:40;101155.17;;;9.21;65.48
22572;BME280;11452;53.368;14.658;2023-02-22T15:19:48;101155.52;;;9.23;65.72
22572;BME280;11452;53.368;14.658;2023-02-22T15:24:59;101151.16;;;9.11;65.46
22572;BME280;11452;53.368;14.658;2023-02-22T15:30:08;101149.12;;;9.07;65.83
22572;BME280;11452;53.368;14.658;2023-02-22T15:35:17;101152.16;;;8.98;65.77
22572;BME280;11452;53.368;14.658;2023-02-22T15:40:22;101144.18;;;8.88;65.90
22572;BME280;11452;53.368;14.658;2023-02-22T15:45:30;101155.43;;;8.84;66.28
22572;BME280;11452;53.368;14.658;2023-02-22T15:50:36;101154.56;;;8.84;66.00
22572;BME280;11452;53.368;14.658;2023-02-22T15:55:44;101154.12;;;8.73;66.47
22572;BME280;11452;53.368;14.658;2023-02-22T16:01:04;101154.25;;;8.59;66.58
22572;BME280;11452;53.368;14.658;2023-02-22T16:06:13;101149.25;;;8.52;66.48
22572;BME280;11452;53.368;14.658;2023-02-22T16:11:25;101153.61;;;8.43;66.57
22572;BME280;11452;53.368;14.658;2023-02-22T16:16:37;101147.89;;;8.30;67.07
22572;BME280;11452;53.368;14.658;2023-02-22T16:21:55;101152.96;;;8.14;66.92
22572;BME280;11452;53.368;14.658;2023-02-22T16:32:20;101149.23;;;7.96;67.50
22572;BME280;11452;53.368;14.658;2023-02-22T16:37:26;101152.64;;;7.88;67.68
22572;BME280;11452;53.368;14.658;2023-02-22T16:42:32;101153.12;;;7.76;67.82
22572;BME280;11452;53.368;14.658;2023-02-22T16:47:38;101154.32;;;7.56;68.03
22572;BME280;11452;53.368;14.658;2023-02-22T16:52:43;101154.70;;;7.34;68.56
22572;BME280;11452;53.368;14.658;2023-02-22T16:57:49;101154.39;;;7.29;68.91
22572;BME280;11452;53.368;14.658;2023-02-22T17:03:02;101150.34;;;7.19;69.13
22572;BME280;11452;53.368;14.658;2023-02-22T17:08:02;101151.67;;;7.19;69.44
22572;BME280;11452;53.368;14.658;2023-02-22T17:13:08;101150.43;;;7.05;69.71
22572;BME280;11452;53.368;14.658;2023-02-22T17:18:18;101154.06;;;7.02;70.06
22572;BME280;11452;53.368;14.658;2023-02-22T17:23:26;101154.72;;;6.95;70.12
22572;BME280;11452;53.368;14.658;2023-02-22T17:28:31;101154.28;;;6.83;70.31
22572;BME280;11452;53.368;14.658;2023-02-22T17:33:37;101147.69;;;6.81;70.49
22572;BME280;11452;53.368;14.658;2023-02-22T17:38:43;101141.53;;;6.68;70.59
22572;BME280;11452;53.368;14.658;2023-02-22T17:43:49;101136.41;;;6.62;70.70
22572;BME280;11452;53.368;14.658;2023-02-22T17:48:56;100881.06;;;5.07;70.80
22572;BME280;11452;53.368;14.658;2023-02-22T17:54:02;101132.27;;;6.53;71.02
22572;BME280;11452;53.368;14.658;2023-02-22T17:59:07;101141.97;;;6.41;71.02
22572;BME280;11452;53.368;14.658;2023-02-22T18:04:13;101140.23;;;6.40;71.23
22572;BME280;11452;53.368;14.658;2023-02-22T18:09:18;101139.87;;;6.37;71.19
22572;BME280;11452;53.368;14.658;2023-02-22T18:14:24;101149.16;;;6.24;71.08
22572;BME280;11452;53.368;14.658;2023-02-22T18:19:30;101148.28;;;6.23;70.94
22572;BME280;11452;53.368;14.658;2023-02-22T18:24:35;101156.97;;;6.14;71.26
22572;BME280;11452;53.368;14.658;2023-02-22T18:29:42;101148.10;;;6.15;71.31
22572;BME280;11452;53.368;14.658;2023-02-22T18:34:47;101151.26;;;6.13;71.27
22572;BME280;11452;53.368;14.658;2023-02-22T18:39:56;101152.34;;;6.07;71.25
22572;BME280;11452;53.368;14.658;2023-02-22T18:45:02;101148.72;;;5.95;71.12
22572;BME280;11452;53.368;14.658;2023-02-22T18:50:10;101147.00;;;5.78;71.41
22572;BME280;11452;53.368;14.658;2023-02-22T18:55:18;101146.41;;;5.83;71.71
22572;BME280;11452;53.368;14.658;2023-02-22T19:00:24;101147.12;;;5.75;71.39
22572;BME280;11452;53.368;14.658;2023-02-22T19:05:34;101156.61;;;5.67;71.31
22572;BME280;11452;53.368;14.658;2023-02-22T19:10:39;101151.68;;;5.55;70.99
22572;BME280;11452;53.368;14.658;2023-02-22T19:15:45;101152.67;;;5.51;71.21
22572;BME280;11452;53.368;14.658;2023-02-22T19:21:00;101147.53;;;5.45;71.00
22572;BME280;11452;53.368;14.658;2023-02-22T19:26:07;101147.08;;;5.45;71.24
22572;BME280;11452;53.368;14.658;2023-02-22T19:31:14;101146.34;;;5.40;70.80
22572;BME280;11452;53.368;14.658;2023-02-22T19:36:22;101144.04;;;5.28;70.59
22572;BME280;11452;53.368;14.658;2023-02-22T19:41:28;101145.33;;;5.30;70.88
22572;BME280;11452;53.368;14.658;2023-02-22T19:46:35;101159.23;;;5.21;70.70
22572;BME280;11452;53.368;14.658;2023-02-22T19:51:41;101137.05;;;5.26;70.65
22572;BME280;11452;53.368;14.658;2023-02-22T19:56:47;101141.52;;;5.23;70.44
22572;BME280;11452;53.368;14.658;2023-02-22T20:01:55;101149.23;;;5.16;70.15
22572;BME280;11452;53.368;14.658;2023-02-22T20:07:01;101145.34;;;4.97;69.82
22572;BME280;11452;53.368;14.658;2023-02-22T20:12:08;101147.31;;;5.05;70.53
22572;BME280;11452;53.368;14.658;2023-02-22T20:17:13;101153.48;;;5.06;70.07
22572;BME280;11452;53.368;14.658;2023-02-22T20:22:20;101145.31;;;4.99;69.99
22572;BME280;11452;53.368;14.658;2023-02-22T20:27:26;101150.76;;;4.93;69.97
22572;BME280;11452;53.368;14.658;2023-02-22T20:32:32;101154.77;;;4.91;70.03
22572;BME280;11452;53.368;14.658;2023-02-22T20:37:39;101154.27;;;4.77;69.95
22572;BME280;11452;53.368;14.658;2023-02-22T20:42:45;101150.11;;;4.83;69.87
22572;BME280;11452;53.368;14.658;2023-02-22T20:47:51;101150.11;;;4.83;69.87
22572;BME280;11452;53.368;14.658;2023-02-22T20:53:00;101150.25;;;4.78;69.82
22572;BME280;11452;53.368;14.658;2023-02-22T20:58:05;101149.88;;;4.76;69.96
22572;BME280;11452;53.368;14.658;2023-02-22T21:03:11;101145.03;;;4.75;69.88
22572;BME280;11452;53.368;14.658;2023-02-22T21:08:17;101147.27;;;4.74;69.67
22572;BME280;11452;53.368;14.658;2023-02-22T21:13:23;101147.94;;;4.65;69.86
22572;BME280;11452;53.368;14.658;2023-02-22T21:18:28;101145.44;;;4.60;69.73
22572;BME280;11452;53.368;14.658;2023-02-22T21:23:34;101140.00;;;4.47;69.87
22572;BME280;11452;53.368;14.658;2023-02-22T21:28:41;101148.78;;;4.49;70.03
22572;BME280;11452;53.368;14.658;2023-02-22T21:33:53;101148.78;;;4.49;70.03
22572;BME280;11452;53.368;14.658;2023-02-22T21:39:00;101147.45;;;4.49;70.03
22572;BME280;11452;53.368;14.658;2023-02-22T21:44:08;101154.31;;;4.40;69.97
22572;BME280;11452;53.368;14.658;2023-02-22T21:49:13;101137.70;;;4.33;70.01
22572;BME280;11452;53.368;14.658;2023-02-22T21:54:19;101152.67;;;4.34;70.16
22572;BME280;11452;53.368;14.658;2023-02-22T21:59:26;101143.75;;;4.21;70.19
22572;BME280;11452;53.368;14.658;2023-02-22T22:04:32;101143.75;;;4.21;70.19
22572;BME280;11452;53.368;14.658;2023-02-22T22:09:38;101142.01;;;4.20;70.03
22572;BME280;11452;53.368;14.658;2023-02-22T22:14:44;101141.38;;;4.08;70.10
22572;BME280;11452;53.368;14.658;2023-02-22T22:19:50;101134.92;;;4.02;70.09
22572;BME280;11452;53.368;14.658;2023-02-22T22:24:55;101144.73;;;3.97;70.35
22572;BME280;11452;53.368;14.658;2023-02-22T22:30:04;101144.73;;;3.97;70.35
22572;BME280;11452;53.368;14.658;2023-02-22T22:35:11;101142.05;;;3.99;70.47
22572;BME280;11452;53.368;14.658;2023-02-22T22:40:18;101141.18;;;3.98;70.52
22572;BME280;11452;53.368;14.658;2023-02-22T22:45:23;101130.50;;;3.83;70.22
22572;BME280;11452;53.368;14.658;2023-02-22T22:50:29;101134.63;;;3.76;70.61
22572;BME280;11452;53.368;14.658;2023-02-22T22:55:39;101128.08;;;3.73;70.68
22572;BME280;11452;53.368;14.658;2023-02-22T23:00:45;101115.50;;;3.65;70.65
22572;BME280;11452;53.368;14.658;2023-02-22T23:05:51;101120.48;;;3.58;70.62
22572;BME280;11452;53.368;14.658;2023-02-22T23:10:57;101125.53;;;3.49;70.70
22572;BME280;11452;53.368;14.658;2023-02-22T23:16:06;101121.09;;;3.51;70.82
22572;BME280;11452;53.368;14.658;2023-02-22T23:21:11;101121.27;;;3.42;71.00
22572;BME280;11452;53.368;14.658;2023-02-22T23:26:18;101120.52;;;3.35;70.70
22572;BME280;11452;53.368;14.658;2023-02-22T23:31:24;101108.77;;;3.29;70.94
22572;BME280;11452;53.368;14.658;2023-02-22T23:36:33;101115.16;;;3.18;70.99
22572;BME280;11452;53.368;14.658;2023-02-22T23:41:38;101111.92;;;3.26;71.21
22572;BME280;11452;53.368;14.658;2023-02-22T23:46:44;101108.52;;;3.19;71.33
22572;BME280;11452;53.368;14.658;2023-02-22T23:51:55;101107.23;;;3.18;71.40
22572;BME280;11452;53.368;14.658;2023-02-22T23:57:02;101100.27;;;3.15;71.46
